sensor_id;sensor_type;location;lat;lon;timestamp;temperature;humidity
4922;DHT22;16625;53.624;10.106;2023-03-19T00:00:24;9.20;99.90
4922;DHT22;16625;53.624;10.106;2023-03-19T00:02:51;9.20;99.90
4922;DHT22;16625;53.624;10.106;2023-03-19T00:05:18;9.10;99.90
4922;DHT22;16625;53.624;10.106;2023-03-19T00:07:45;9.10;99.90
4922;DHT22;16625;53.624;10.106;2023-03-19T00:10:12;9.00;99.90
4922;DHT22;16625;53.624;10.106;2023-03-19T00:12:39;8.80;99.90
4922;DHT22;16625;53.624;10.106;2023-03-19T00:15:08;8.80;1.00
4922;DHT22;16625;53.624;10.106;2023-03-19T00:17:39;8.80;1.00
4922;DHT22;16625;53.624;10.106;2023-03-19T00:20:08;8.80;1.00
4922;DHT22;16625;53.624;10.106;2023-03-19T00:22:35;8.80;1.00
4922;DHT22;16625;53.624;10.106;2023-03-19T00:25:02;8.80;42.00
4922;DHT22;16625;53.624;10.106;2023-03-19T00:27:29;8.90;99.90
4922;DHT22;16625;53.624;10.106;2023-03-19T00:29:56;8.90;99.90
4922;DHT22;16625;53.624;10.106;2023-03-19T00:32:24;8.90;99.90
4922;DHT22;16625;53.624;10.106;2023-03-19T00:34:51;8.90;99.90
4922;DHT22;16625;53.624;10.106;2023-03-19T00:37:18;9.00;99.90
4922;DHT22;16625;53.624;10.106;2023-03-19T00:39:46;9.00;99.90
4922;DHT22;16625;53.624;10.106;2023-03-19T00:42:13;9.00;99.90
4922;DHT22;16625;53.624;10.106;2023-03-19T00:44:40;8.90;99.90
4922;DHT22;16625;53.624;10.106;2023-03-19T00:47:07;8.80;99.90
4922;DHT22;16625;53.624;10.106;2023-03-19T00:49:35;8.70;99.90
4922;DHT22;16625;53.624;10.106;2023-03-19T00:52:02;8.60;99.90
4922;DHT22;16625;53.624;10.106;2023-03-19T00:54:29;8.60;99.90
4922;DHT22;16625;53.624;10.106;2023-03-19T00:56:56;8.50;99.90
4922;DHT22;16625;53.624;10.106;2023-03-19T00:59:23;8.50;99.90
4922;DHT22;16625;53.624;10.106;2023-03-19T01:01:50;8.50;99.90
4922;DHT22;16625;53.624;10.106;2023-03-19T01:04:17;8.50;99.90
4922;DHT22;16625;53.624;10.106;2023-03-19T01:06:46;8.40;99.90
4922;DHT22;16625;53.624;10.106;2023-03-19T01:09:13;8.30;99.90
4922;DHT22;16625;53.624;10.106;2023-03-19T01:11:40;8.30;99.90
4922;DHT22;16625;53.624;10.106;2023-03-19T01:14:07;8.20;99.90
4922;DHT22;16625;53.624;10.106;2023-03-19T01:16:34;8.20;99.90
4922;DHT22;16625;53.624;10.106;2023-03-19T01:19:01;8.20;99.90
4922;DHT22;16625;53.624;10.106;2023-03-19T01:21:29;8.30;99.90
4922;DHT22;16625;53.624;10.106;2023-03-19T01:23:57;8.30;99.90
4922;DHT22;16625;53.624;10.106;2023-03-19T01:26:24;8.30;99.90
4922;DHT22;16625;53.624;10.106;2023-03-19T01:28:51;8.40;99.90
4922;DHT22;16625;53.624;10.106;2023-03-19T01:31:19;8.40;99.90
4922;DHT22;16625;53.624;10.106;2023-03-19T01:33:46;8.40;99.90
4922;DHT22;16625;53.624;10.106;2023-03-19T01:36:13;8.40;99.90
4922;DHT22;16625;53.624;10.106;2023-03-19T01:38:40;8.30;99.90
4922;DHT22;16625;53.624;10.106;2023-03-19T01:41:08;8.30;99.90
4922;DHT22;16625;53.624;10.106;2023-03-19T01:43:35;8.20;99.90
4922;DHT22;16625;53.624;10.106;2023-03-19T01:46:05;8.20;99.90
4922;DHT22;16625;53.624;10.106;2023-03-19T01:48:37;8.20;99.90
4922;DHT22;16625;53.624;10.106;2023-03-19T01:51:06;8.20;99.90
4922;DHT22;16625;53.624;10.106;2023-03-19T01:53:35;8.20;99.90
4922;DHT22;16625;53.624;10.106;2023-03-19T01:56:08;8.10;99.90
4922;DHT22;16625;53.624;10.106;2023-03-19T01:58:36;8.10;99.90
4922;DHT22;16625;53.624;10.106;2023-03-19T02:01:03;8.20;99.90
4922;DHT22;16625;53.624;10.106;2023-03-19T02:03:36;8.20;99.90
4922;DHT22;16625;53.624;10.106;2023-03-19T02:06:04;8.20;99.90
4922;DHT22;16625;53.624;10.106;2023-03-19T02:08:32;8.20;99.90
4922;DHT22;16625;53.624;10.106;2023-03-19T02:11:00;8.10;99.90
4922;DHT22;16625;53.624;10.106;2023-03-19T02:13:28;8.10;99.90
4922;DHT22;16625;53.624;10.106;2023-03-19T02:15:55;8.00;99.90
4922;DHT22;16625;53.624;10.106;2023-03-19T02:18:23;8.00;99.90
4922;DHT22;16625;53.624;10.106;2023-03-19T02:20:55;8.00;99.90
4922;DHT22;16625;53.624;10.106;2023-03-19T02:23:32;8.00;99.90
4922;DHT22;16625;53.624;10.106;2023-03-19T02:26:06;8.00;99.90
4922;DHT22;16625;53.624;10.106;2023-03-19T02:28:36;7.80;99.90
4922;DHT22;16625;53.624;10.106;2023-03-19T02:31:04;7.80;99.90
4922;DHT22;16625;53.624;10.106;2023-03-19T02:33:32;7.90;99.90
4922;DHT22;16625;53.624;10.106;2023-03-19T02:35:59;7.90;99.90
4922;DHT22;16625;53.624;10.106;2023-03-19T02:38:29;7.90;99.90
4922;DHT22;16625;53.624;10.106;2023-03-19T02:41:00;7.80;99.90
4922;DHT22;16625;53.624;10.106;2023-03-19T02:43:31;7.80;99.90
4922;DHT22;16625;53.624;10.106;2023-03-19T02:45:59;7.70;99.90
4922;DHT22;16625;53.624;10.106;2023-03-19T02:48:26;7.60;99.90
4922;DHT22;16625;53.624;10.106;2023-03-19T02:50:53;7.60;99.90
4922;DHT22;16625;53.624;10.106;2023-03-19T02:53:21;7.50;99.90
4922;DHT22;16625;53.624;10.106;2023-03-19T02:55:50;7.60;99.90
4922;DHT22;16625;53.624;10.106;2023-03-19T02:58:17;7.40;99.90
4922;DHT22;16625;53.624;10.106;2023-03-19T03:00:46;7.40;99.90
4922;DHT22;16625;53.624;10.106;2023-03-19T03:03:13;7.30;99.90
4922;DHT22;16625;53.624;10.106;2023-03-19T03:05:40;7.20;99.90
4922;DHT22;16625;53.624;10.106;2023-03-19T03:08:07;7.10;99.90
4922;DHT22;16625;53.624;10.106;2023-03-19T03:10:35;7.00;99.90
4922;DHT22;16625;53.624;10.106;2023-03-19T03:13:02;7.00;99.90
4922;DHT22;16625;53.624;10.106;2023-03-19T03:15:30;7.00;99.90
4922;DHT22;16625;53.624;10.106;2023-03-19T03:17:58;6.90;99.90
4922;DHT22;16625;53.624;10.106;2023-03-19T03:20:25;6.90;99.90
4922;DHT22;16625;53.624;10.106;2023-03-19T03:22:52;6.90;99.90
4922;DHT22;16625;53.624;10.106;2023-03-19T03:25:19;6.80;99.90
4922;DHT22;16625;53.624;10.106;2023-03-19T03:27:47;6.80;99.90
4922;DHT22;16625;53.624;10.106;2023-03-19T03:30:14;6.80;99.90
4922;DHT22;16625;53.624;10.106;2023-03-19T03:32:42;6.80;99.90
4922;DHT22;16625;53.624;10.106;2023-03-19T03:35:11;6.70;99.90
4922;DHT22;16625;53.624;10.106;2023-03-19T03:37:38;6.70;99.90
4922;DHT22;16625;53.624;10.106;2023-03-19T03:40:06;6.80;99.90
4922;DHT22;16625;53.624;10.106;2023-03-19T03:42:34;6.80;99.90
4922;DHT22;16625;53.624;10.106;2023-03-19T03:45:03;6.80;99.90
4922;DHT22;16625;53.624;10.106;2023-03-19T03:47:30;6.70;99.90
4922;DHT22;16625;53.624;10.106;2023-03-19T03:49:57;6.70;99.90
4922;DHT22;16625;53.624;10.106;2023-03-19T03:52:25;6.70;99.90
4922;DHT22;16625;53.624;10.106;2023-03-19T03:54:56;6.70;99.90
4922;DHT22;16625;53.624;10.106;2023-03-19T03:57:23;6.70;99.90
4922;DHT22;16625;53.624;10.106;2023-03-19T03:59:50;6.60;99.90
4922;DHT22;16625;53.624;10.106;2023-03-19T04:02:17;6.60;99.90
4922;DHT22;16625;53.624;10.106;2023-03-19T04:04:44;6.60;99.90
4922;DHT22;16625;53.624;10.106;2023-03-19T04:07:12;6.70;99.90
4922;DHT22;16625;53.624;10.106;2023-03-19T04:09:40;6.70;99.90
4922;DHT22;16625;53.624;10.106;2023-03-19T04:12:07;6.70;99.90
4922;DHT22;16625;53.624;10.106;2023-03-19T04:14:34;6.60;99.90
4922;DHT22;16625;53.624;10.106;2023-03-19T04:17:01;6.70;99.90
4922;DHT22;16625;53.624;10.106;2023-03-19T04:19:29;6.70;99.90
4922;DHT22;16625;53.624;10.106;2023-03-19T04:21:57;6.70;99.90
4922;DHT22;16625;53.624;10.106;2023-03-19T04:24:24;6.70;99.90
4922;DHT22;16625;53.624;10.106;2023-03-19T04:26:52;6.70;99.90
4922;DHT22;16625;53.624;10.106;2023-03-19T04:29:19;6.80;99.90
4922;DHT22;16625;53.624;10.106;2023-03-19T04:31:47;6.80;99.90
4922;DHT22;16625;53.624;10.106;2023-03-19T04:34:15;6.90;99.90
4922;DHT22;16625;53.624;10.106;2023-03-19T04:36:42;6.70;99.90
4922;DHT22;16625;53.624;10.106;2023-03-19T04:39:09;6.80;99.90
4922;DHT22;16625;53.624;10.106;2023-03-19T04:41:36;6.80;99.90
4922;DHT22;16625;53.624;10.106;2023-03-19T04:44:04;6.80;99.90
4922;DHT22;16625;53.624;10.106;2023-03-19T04:46:32;6.80;99.90
4922;DHT22;16625;53.624;10.106;2023-03-19T04:48:59;6.80;99.90
4922;DHT22;16625;53.624;10.106;2023-03-19T04:51:26;6.70;99.90
4922;DHT22;16625;53.624;10.106;2023-03-19T04:53:53;6.80;99.90
4922;DHT22;16625;53.624;10.106;2023-03-19T04:56:20;6.80;99.90
4922;DHT22;16625;53.624;10.106;2023-03-19T04:58:47;6.70;99.90
4922;DHT22;16625;53.624;10.106;2023-03-19T05:01:15;6.60;99.90
4922;DHT22;16625;53.624;10.106;2023-03-19T05:03:42;6.80;99.90
4922;DHT22;16625;53.624;10.106;2023-03-19T05:06:09;6.90;99.90
4922;DHT22;16625;53.624;10.106;2023-03-19T05:08:36;7.00;99.90
4922;DHT22;16625;53.624;10.106;2023-03-19T05:11:04;6.90;99.90
4922;DHT22;16625;53.624;10.106;2023-03-19T05:13:30;6.90;99.90
4922;DHT22;16625;53.624;10.106;2023-03-19T05:15:58;7.00;99.90
4922;DHT22;16625;53.624;10.106;2023-03-19T05:18:26;7.10;99.90
4922;DHT22;16625;53.624;10.106;2023-03-19T05:20:53;7.10;99.90
4922;DHT22;16625;53.624;10.106;2023-03-19T05:23:21;7.10;99.90
4922;DHT22;16625;53.624;10.106;2023-03-19T05:25:48;7.10;99.90
4922;DHT22;16625;53.624;10.106;2023-03-19T05:28:15;7.20;99.90
4922;DHT22;16625;53.624;10.106;2023-03-19T05:30:43;7.20;99.90
4922;DHT22;16625;53.624;10.106;2023-03-19T05:33:11;7.20;99.90
4922;DHT22;16625;53.624;10.106;2023-03-19T05:35:39;7.20;99.90
4922;DHT22;16625;53.624;10.106;2023-03-19T05:38:06;7.20;99.90
4922;DHT22;16625;53.624;10.106;2023-03-19T05:40:34;7.20;99.90
4922;DHT22;16625;53.624;10.106;2023-03-19T05:43:01;7.20;99.90
4922;DHT22;16625;53.624;10.106;2023-03-19T05:45:28;7.20;99.90
4922;DHT22;16625;53.624;10.106;2023-03-19T05:47:55;7.20;99.90
4922;DHT22;16625;53.624;10.106;2023-03-19T05:50:22;7.20;99.90
4922;DHT22;16625;53.624;10.106;2023-03-19T05:52:52;7.10;99.90
4922;DHT22;16625;53.624;10.106;2023-03-19T05:55:19;7.10;99.90
4922;DHT22;16625;53.624;10.106;2023-03-19T05:57:46;7.10;99.90
4922;DHT22;16625;53.624;10.106;2023-03-19T06:00:13;7.10;99.90
4922;DHT22;16625;53.624;10.106;2023-03-19T06:02:41;7.10;99.90
4922;DHT22;16625;53.624;10.106;2023-03-19T06:05:09;7.20;99.90
4922;DHT22;16625;53.624;10.106;2023-03-19T06:07:36;7.20;99.90
4922;DHT22;16625;53.624;10.106;2023-03-19T06:10:06;7.30;99.90
4922;DHT22;16625;53.624;10.106;2023-03-19T06:12:33;7.40;99.90
4922;DHT22;16625;53.624;10.106;2023-03-19T06:15:00;7.50;99.90
4922;DHT22;16625;53.624;10.106;2023-03-19T06:17:27;7.60;99.90
4922;DHT22;16625;53.624;10.106;2023-03-19T06:19:54;7.50;99.90
4922;DHT22;16625;53.624;10.106;2023-03-19T06:22:21;7.60;99.90
4922;DHT22;16625;53.624;10.106;2023-03-19T06:24:48;7.70;99.90
4922;DHT22;16625;53.624;10.106;2023-03-19T06:27:17;7.70;99.90
4922;DHT22;16625;53.624;10.106;2023-03-19T06:29:44;7.80;99.90
4922;DHT22;16625;53.624;10.106;2023-03-19T06:32:11;7.90;99.90
4922;DHT22;16625;53.624;10.106;2023-03-19T06:34:38;7.90;99.90
4922;DHT22;16625;53.624;10.106;2023-03-19T06:37:05;8.00;99.90
4922;DHT22;16625;53.624;10.106;2023-03-19T06:39:32;8.00;99.90
4922;DHT22;16625;53.624;10.106;2023-03-19T06:41:59;8.20;99.90
4922;DHT22;16625;53.624;10.106;2023-03-19T06:44:28;8.20;99.90
4922;DHT22;16625;53.624;10.106;2023-03-19T06:46:55;8.30;99.90
4922;DHT22;16625;53.624;10.106;2023-03-19T06:49:22;8.50;99.90
4922;DHT22;16625;53.624;10.106;2023-03-19T06:51:49;8.50;99.90
4922;DHT22;16625;53.624;10.106;2023-03-19T06:54:16;8.60;99.90
4922;DHT22;16625;53.624;10.106;2023-03-19T06:56:43;8.70;99.90
4922;DHT22;16625;53.624;10.106;2023-03-19T06:59:10;8.80;99.90
4922;DHT22;16625;53.624;10.106;2023-03-19T07:01:39;8.90;99.90
4922;DHT22;16625;53.624;10.106;2023-03-19T07:04:06;9.20;99.90
4922;DHT22;16625;53.624;10.106;2023-03-19T07:06:33;9.30;99.90
4922;DHT22;16625;53.624;10.106;2023-03-19T07:09:00;9.50;99.90
4922;DHT22;16625;53.624;10.106;2023-03-19T07:11:27;9.70;99.90
4922;DHT22;16625;53.624;10.106;2023-03-19T07:13:55;9.70;99.90
4922;DHT22;16625;53.624;10.106;2023-03-19T07:16:21;9.90;99.90
4922;DHT22;16625;53.624;10.106;2023-03-19T07:18:50;10.00;99.90
4922;DHT22;16625;53.624;10.106;2023-03-19T07:21:18;10.20;99.90
4922;DHT22;16625;53.624;10.106;2023-03-19T07:23:45;10.40;99.90
4922;DHT22;16625;53.624;10.106;2023-03-19T07:26:12;10.50;99.90
4922;DHT22;16625;53.624;10.106;2023-03-19T07:28:39;10.60;99.90
4922;DHT22;16625;53.624;10.106;2023-03-19T07:31:06;10.60;99.90
4922;DHT22;16625;53.624;10.106;2023-03-19T07:33:34;10.80;99.90
4922;DHT22;16625;53.624;10.106;2023-03-19T07:36:06;11.00;99.90
4922;DHT22;16625;53.624;10.106;2023-03-19T07:38:33;11.00;99.90
4922;DHT22;16625;53.624;10.106;2023-03-19T07:41:00;11.00;99.90
4922;DHT22;16625;53.624;10.106;2023-03-19T07:43:27;11.30;99.90
4922;DHT22;16625;53.624;10.106;2023-03-19T07:45:54;11.40;99.90
4922;DHT22;16625;53.624;10.106;2023-03-19T07:48:21;11.60;99.90
4922;DHT22;16625;53.624;10.106;2023-03-19T07:50:49;11.90;99.90
4922;DHT22;16625;53.624;10.106;2023-03-19T07:53:19;12.20;99.90
4922;DHT22;16625;53.624;10.106;2023-03-19T07:55:47;12.60;99.90
4922;DHT22;16625;53.624;10.106;2023-03-19T07:58:14;12.70;99.90
4922;DHT22;16625;53.624;10.106;2023-03-19T08:00:41;12.80;99.90
4922;DHT22;16625;53.624;10.106;2023-03-19T08:03:09;12.90;99.90
4922;DHT22;16625;53.624;10.106;2023-03-19T08:05:37;13.10;99.90
4922;DHT22;16625;53.624;10.106;2023-03-19T08:08:04;12.90;99.90
4922;DHT22;16625;53.624;10.106;2023-03-19T08:10:33;13.00;78.80
4922;DHT22;16625;53.624;10.106;2023-03-19T08:13:00;13.00;1.00
4922;DHT22;16625;53.624;10.106;2023-03-19T08:15:28;13.10;99.90
4922;DHT22;16625;53.624;10.106;2023-03-19T08:17:58;13.30;99.90
4922;DHT22;16625;53.624;10.106;2023-03-19T08:20:26;13.40;1.00
4922;DHT22;16625;53.624;10.106;2023-03-19T08:22:53;13.50;99.90
4922;DHT22;16625;53.624;10.106;2023-03-19T08:25:21;13.60;99.90
4922;DHT22;16625;53.624;10.106;2023-03-19T08:27:49;13.70;1.00
4922;DHT22;16625;53.624;10.106;2023-03-19T08:30:16;13.70;1.00
4922;DHT22;16625;53.624;10.106;2023-03-19T08:32:43;13.60;33.00
4922;DHT22;16625;53.624;10.106;2023-03-19T08:35:11;13.70;99.90
4922;DHT22;16625;53.624;10.106;2023-03-19T08:37:38;13.70;1.00
4922;DHT22;16625;53.624;10.106;2023-03-19T08:40:07;13.70;1.00
4922;DHT22;16625;53.624;10.106;2023-03-19T08:42:34;13.80;1.00
4922;DHT22;16625;53.624;10.106;2023-03-19T08:45:06;13.80;1.00
4922;DHT22;16625;53.624;10.106;2023-03-19T08:47:33;13.70;99.90
4922;DHT22;16625;53.624;10.106;2023-03-19T08:50:00;13.80;1.00
4922;DHT22;16625;53.624;10.106;2023-03-19T08:52:28;13.80;1.00
4922;DHT22;16625;53.624;10.106;2023-03-19T08:54:56;14.00;99.90
4922;DHT22;16625;53.624;10.106;2023-03-19T08:57:23;14.10;99.90
4922;DHT22;16625;53.624;10.106;2023-03-19T08:59:51;14.30;99.90
4922;DHT22;16625;53.624;10.106;2023-03-19T09:02:19;14.30;1.00
4922;DHT22;16625;53.624;10.106;2023-03-19T09:04:46;14.50;1.00
4922;DHT22;16625;53.624;10.106;2023-03-19T09:07:13;14.80;1.00
4922;DHT22;16625;53.624;10.106;2023-03-19T09:09:42;14.70;1.00
4922;DHT22;16625;53.624;10.106;2023-03-19T09:12:11;14.60;1.00
4922;DHT22;16625;53.624;10.106;2023-03-19T09:14:40;14.50;99.90
4922;DHT22;16625;53.624;10.106;2023-03-19T09:17:07;14.30;99.90
4922;DHT22;16625;53.624;10.106;2023-03-19T09:19:36;14.20;99.90
4922;DHT22;16625;53.624;10.106;2023-03-19T09:22:04;14.10;99.90
4922;DHT22;16625;53.624;10.106;2023-03-19T09:24:31;14.00;99.90
4922;DHT22;16625;53.624;10.106;2023-03-19T09:26:57;13.90;99.90
4922;DHT22;16625;53.624;10.106;2023-03-19T09:29:25;13.80;99.90
4922;DHT22;16625;53.624;10.106;2023-03-19T09:31:51;14.10;99.90
4922;DHT22;16625;53.624;10.106;2023-03-19T09:34:18;14.30;13.30
4922;DHT22;16625;53.624;10.106;2023-03-19T09:36:58;14.50;1.00
4922;DHT22;16625;53.624;10.106;2023-03-19T09:39:30;14.60;1.00
4922;DHT22;16625;53.624;10.106;2023-03-19T09:42:08;15.00;1.00
4922;DHT22;16625;53.624;10.106;2023-03-19T09:44:43;15.30;1.00
4922;DHT22;16625;53.624;10.106;2023-03-19T09:47:23;15.60;99.90
4922;DHT22;16625;53.624;10.106;2023-03-19T09:49:52;15.80;99.90
4922;DHT22;16625;53.624;10.106;2023-03-19T09:52:32;15.80;99.90
4922;DHT22;16625;53.624;10.106;2023-03-19T09:55:03;15.80;99.90
4922;DHT22;16625;53.624;10.106;2023-03-19T09:57:33;15.70;99.90
4922;DHT22;16625;53.624;10.106;2023-03-19T10:00:10;15.70;99.90
4922;DHT22;16625;53.624;10.106;2023-03-19T10:02:44;15.90;99.90
4922;DHT22;16625;53.624;10.106;2023-03-19T10:05:21;16.10;99.90
4922;DHT22;16625;53.624;10.106;2023-03-19T10:08:21;16.20;80.40
4922;DHT22;16625;53.624;10.106;2023-03-19T10:11:13;16.40;48.10
4922;DHT22;16625;53.624;10.106;2023-03-19T10:13:51;16.50;1.00
4922;DHT22;16625;53.624;10.106;2023-03-19T10:16:21;16.40;1.00
4922;DHT22;16625;53.624;10.106;2023-03-19T10:18:53;16.40;1.00
4922;DHT22;16625;53.624;10.106;2023-03-19T10:21:25;16.50;1.00
4922;DHT22;16625;53.624;10.106;2023-03-19T10:23:56;16.60;1.00
4922;DHT22;16625;53.624;10.106;2023-03-19T10:26:29;16.40;1.00
4922;DHT22;16625;53.624;10.106;2023-03-19T10:29:02;16.40;1.00
4922;DHT22;16625;53.624;10.106;2023-03-19T10:31:39;16.60;1.00
4922;DHT22;16625;53.624;10.106;2023-03-19T10:34:17;16.90;1.00
4922;DHT22;16625;53.624;10.106;2023-03-19T10:36:47;16.90;1.00
4922;DHT22;16625;53.624;10.106;2023-03-19T10:39:17;17.00;1.00
4922;DHT22;16625;53.624;10.106;2023-03-19T10:41:49;17.00;1.00
4922;DHT22;16625;53.624;10.106;2023-03-19T10:44:27;17.20;1.00
4922;DHT22;16625;53.624;10.106;2023-03-19T10:46:57;17.10;1.00
4922;DHT22;16625;53.624;10.106;2023-03-19T10:49:25;16.90;1.00
4922;DHT22;16625;53.624;10.106;2023-03-19T10:51:55;17.00;1.00
4922;DHT22;16625;53.624;10.106;2023-03-19T10:54:26;17.00;1.00
4922;DHT22;16625;53.624;10.106;2023-03-19T10:56:56;17.00;1.00
4922;DHT22;16625;53.624;10.106;2023-03-19T10:59:25;17.10;1.00
4922;DHT22;16625;53.624;10.106;2023-03-19T11:01:56;17.40;1.00
4922;DHT22;16625;53.624;10.106;2023-03-19T11:04:25;17.60;1.00
4922;DHT22;16625;53.624;10.106;2023-03-19T11:06:54;17.70;1.00
4922;DHT22;16625;53.624;10.106;2023-03-19T11:09:29;17.80;1.00
4922;DHT22;16625;53.624;10.106;2023-03-19T11:12:05;17.70;1.00
4922;DHT22;16625;53.624;10.106;2023-03-19T11:14:34;17.80;1.00
4922;DHT22;16625;53.624;10.106;2023-03-19T11:17:05;17.80;1.00
4922;DHT22;16625;53.624;10.106;2023-03-19T11:19:39;18.00;1.00
4922;DHT22;16625;53.624;10.106;2023-03-19T11:22:15;17.90;1.00
4922;DHT22;16625;53.624;10.106;2023-03-19T11:24:51;17.80;1.00
4922;DHT22;16625;53.624;10.106;2023-03-19T11:27:18;17.70;1.00
4922;DHT22;16625;53.624;10.106;2023-03-19T11:29:52;17.40;99.90
4922;DHT22;16625;53.624;10.106;2023-03-19T11:35:19;17.00;99.90
4922;DHT22;16625;53.624;10.106;2023-03-19T11:37:53;17.00;99.90
4922;DHT22;16625;53.624;10.106;2023-03-19T11:40:28;17.20;99.90
4922;DHT22;16625;53.624;10.106;2023-03-19T11:43:09;17.40;99.90
4922;DHT22;16625;53.624;10.106;2023-03-19T11:45:48;17.40;99.90
4922;DHT22;16625;53.624;10.106;2023-03-19T11:48:32;17.50;99.90
4922;DHT22;16625;53.624;10.106;2023-03-19T11:51:08;17.50;99.90
4922;DHT22;16625;53.624;10.106;2023-03-19T11:53:52;17.50;99.90
4922;DHT22;16625;53.624;10.106;2023-03-19T11:56:31;17.30;99.90
4922;DHT22;16625;53.624;10.106;2023-03-19T11:59:35;17.30;99.90
4922;DHT22;16625;53.624;10.106;2023-03-19T12:02:25;17.60;99.90
4922;DHT22;16625;53.624;10.106;2023-03-19T12:05:17;18.00;99.90
4922;DHT22;16625;53.624;10.106;2023-03-19T12:07:55;18.50;99.90
4922;DHT22;16625;53.624;10.106;2023-03-19T12:10:33;18.30;99.90
4922;DHT22;16625;53.624;10.106;2023-03-19T12:13:16;17.80;99.90
4922;DHT22;16625;53.624;10.106;2023-03-19T12:15:54;17.40;99.90
4922;DHT22;16625;53.624;10.106;2023-03-19T12:18:36;17.40;99.90
4922;DHT22;16625;53.624;10.106;2023-03-19T12:21:13;17.30;99.90
4922;DHT22;16625;53.624;10.106;2023-03-19T12:24:02;17.10;99.90
4922;DHT22;16625;53.624;10.106;2023-03-19T12:26:37;17.00;99.90
4922;DHT22;16625;53.624;10.106;2023-03-19T12:29:16;16.70;99.90
4922;DHT22;16625;53.624;10.106;2023-03-19T12:32:06;16.60;99.90
4922;DHT22;16625;53.624;10.106;2023-03-19T12:34:40;16.40;1.00
4922;DHT22;16625;53.624;10.106;2023-03-19T12:37:16;16.30;1.00
4922;DHT22;16625;53.624;10.106;2023-03-19T12:39:52;16.10;1.00
4922;DHT22;16625;53.624;10.106;2023-03-19T12:42:21;16.10;1.00
4922;DHT22;16625;53.624;10.106;2023-03-19T12:44:55;15.90;1.00
4922;DHT22;16625;53.624;10.106;2023-03-19T12:47:25;15.80;93.70
4922;DHT22;16625;53.624;10.106;2023-03-19T12:50:00;15.70;99.90
4922;DHT22;16625;53.624;10.106;2023-03-19T12:52:34;15.70;1.00
4922;DHT22;16625;53.624;10.106;2023-03-19T12:55:07;15.60;1.00
4922;DHT22;16625;53.624;10.106;2023-03-19T12:57:43;15.60;1.00
4922;DHT22;16625;53.624;10.106;2023-03-19T13:00:18;15.60;1.00
4922;DHT22;16625;53.624;10.106;2023-03-19T13:02:52;15.70;27.80
4922;DHT22;16625;53.624;10.106;2023-03-19T13:05:28;15.80;1.00
4922;DHT22;16625;53.624;10.106;2023-03-19T13:08:02;16.00;1.00
4922;DHT22;16625;53.624;10.106;2023-03-19T13:10:31;16.20;99.90
4922;DHT22;16625;53.624;10.106;2023-03-19T13:12:59;16.30;99.90
4922;DHT22;16625;53.624;10.106;2023-03-19T13:15:32;16.40;99.90
4922;DHT22;16625;53.624;10.106;2023-03-19T13:18:15;16.50;1.00
4922;DHT22;16625;53.624;10.106;2023-03-19T13:21:00;16.50;1.00
4922;DHT22;16625;53.624;10.106;2023-03-19T13:23:35;16.30;1.00
4922;DHT22;16625;53.624;10.106;2023-03-19T13:26:06;16.30;1.00
4922;DHT22;16625;53.624;10.106;2023-03-19T13:28:36;16.20;1.00
4922;DHT22;16625;53.624;10.106;2023-03-19T13:31:15;16.10;1.00
4922;DHT22;16625;53.624;10.106;2023-03-19T13:33:52;16.00;1.00
4922;DHT22;16625;53.624;10.106;2023-03-19T13:36:20;16.00;26.90
4922;DHT22;16625;53.624;10.106;2023-03-19T13:38:48;16.00;1.00
4922;DHT22;16625;53.624;10.106;2023-03-19T13:41:50;16.10;1.00
4922;DHT22;16625;53.624;10.106;2023-03-19T13:44:34;16.10;1.00
4922;DHT22;16625;53.624;10.106;2023-03-19T13:47:37;15.90;1.00
4922;DHT22;16625;53.624;10.106;2023-03-19T13:50:38;16.00;1.00
4922;DHT22;16625;53.624;10.106;2023-03-19T13:53:37;16.10;1.00
4922;DHT22;16625;53.624;10.106;2023-03-19T13:56:05;15.90;1.00
4922;DHT22;16625;53.624;10.106;2023-03-19T13:58:46;16.00;1.00
4922;DHT22;16625;53.624;10.106;2023-03-19T14:01:37;16.00;1.00
4922;DHT22;16625;53.624;10.106;2023-03-19T14:04:19;15.80;1.00
4922;DHT22;16625;53.624;10.106;2023-03-19T14:06:48;15.80;1.00
4922;DHT22;16625;53.624;10.106;2023-03-19T14:09:37;15.60;1.00
4922;DHT22;16625;53.624;10.106;2023-03-19T14:12:22;15.30;1.00
4922;DHT22;16625;53.624;10.106;2023-03-19T14:14:53;15.30;1.00
4922;DHT22;16625;53.624;10.106;2023-03-19T14:17:23;15.10;15.10
4922;DHT22;16625;53.624;10.106;2023-03-19T14:19:52;14.90;99.90
4922;DHT22;16625;53.624;10.106;2023-03-19T14:22:30;14.80;1.00
4922;DHT22;16625;53.624;10.106;2023-03-19T14:25:12;14.60;99.90
4922;DHT22;16625;53.624;10.106;2023-03-19T14:27:43;14.70;1.00
4922;DHT22;16625;53.624;10.106;2023-03-19T14:30:19;14.70;99.90
4922;DHT22;16625;53.624;10.106;2023-03-19T14:32:51;14.80;1.00
4922;DHT22;16625;53.624;10.106;2023-03-19T14:35:20;14.80;1.00
4922;DHT22;16625;53.624;10.106;2023-03-19T14:37:51;14.90;93.00
4922;DHT22;16625;53.624;10.106;2023-03-19T14:40:21;15.00;1.00
4922;DHT22;16625;53.624;10.106;2023-03-19T14:42:56;15.00;1.00
4922;DHT22;16625;53.624;10.106;2023-03-19T14:45:44;14.90;1.00
4922;DHT22;16625;53.624;10.106;2023-03-19T14:51:35;14.90;1.00
4922;DHT22;16625;53.624;10.106;2023-03-19T14:54:15;14.90;99.90
4922;DHT22;16625;53.624;10.106;2023-03-19T14:56:46;14.80;99.90
4922;DHT22;16625;53.624;10.106;2023-03-19T14:59:15;14.70;1.00
4922;DHT22;16625;53.624;10.106;2023-03-19T15:01:46;14.60;99.90
4922;DHT22;16625;53.624;10.106;2023-03-19T15:04:15;14.50;90.50
4922;DHT22;16625;53.624;10.106;2023-03-19T15:06:49;14.60;99.90
4922;DHT22;16625;53.624;10.106;2023-03-19T15:09:20;14.70;1.00
4922;DHT22;16625;53.624;10.106;2023-03-19T15:15:10;14.80;99.90
4922;DHT22;16625;53.624;10.106;2023-03-19T15:17:39;14.70;99.90
4922;DHT22;16625;53.624;10.106;2023-03-19T15:20:16;14.60;99.90
4922;DHT22;16625;53.624;10.106;2023-03-19T15:22:52;14.60;99.90
4922;DHT22;16625;53.624;10.106;2023-03-19T15:25:20;14.50;99.90
4922;DHT22;16625;53.624;10.106;2023-03-19T15:28:03;14.30;99.90
4922;DHT22;16625;53.624;10.106;2023-03-19T15:30:30;14.10;99.90
4922;DHT22;16625;53.624;10.106;2023-03-19T15:32:57;14.10;99.90
4922;DHT22;16625;53.624;10.106;2023-03-19T15:35:29;14.00;1.00
4922;DHT22;16625;53.624;10.106;2023-03-19T15:38:00;13.90;1.00
4922;DHT22;16625;53.624;10.106;2023-03-19T15:40:29;13.80;99.90
4922;DHT22;16625;53.624;10.106;2023-03-19T15:42:59;13.70;99.90
4922;DHT22;16625;53.624;10.106;2023-03-19T15:45:28;13.60;1.00
4922;DHT22;16625;53.624;10.106;2023-03-19T15:47:59;13.60;1.00
4922;DHT22;16625;53.624;10.106;2023-03-19T15:50:30;13.60;1.00
4922;DHT22;16625;53.624;10.106;2023-03-19T15:53:01;13.70;99.90
4922;DHT22;16625;53.624;10.106;2023-03-19T15:55:32;13.60;1.00
4922;DHT22;16625;53.624;10.106;2023-03-19T15:58:04;13.50;61.90
4922;DHT22;16625;53.624;10.106;2023-03-19T16:00:35;13.50;99.90
4922;DHT22;16625;53.624;10.106;2023-03-19T16:03:04;13.50;99.90
4922;DHT22;16625;53.624;10.106;2023-03-19T16:05:32;13.50;1.00
4922;DHT22;16625;53.624;10.106;2023-03-19T16:08:04;13.50;1.00
4922;DHT22;16625;53.624;10.106;2023-03-19T16:10:36;13.50;99.90
4922;DHT22;16625;53.624;10.106;2023-03-19T16:13:28;13.60;99.90